East Stroudsburg, Pennsylvania
Current Conditions -  °F | °C
As of 4:53 AM on Thursday 23 Oct 2014 (Local Time) from KMPO Reporting Station
Overcast Overcast  
Wind Chill: 37°   Ceiling: 900
Heat Index: 44°   Visibility: 10mi
Dew Point: 41°   Wind: 14mph
Humidity: 89%   Direction: 340°NNW
Pressure: 29.8"   Gusts: 23mph
Location:  40.99°N, 75.18°W
Report Text: KMPO 230853Z AUTO 34012G20KT 10SM OVC009 07/05 A2980 RMK AO2 RAE18 CIG 007V011 SLP099 6//// T00670050 56001 TSNO PNO $
Loading
Personal Weather Stations






























Interactive Weather Map
Tropical Storm Tracking
New forecast layout! Learn more

10-Day Weather Forecast

Advertisements
Track Severe Weather on mobile